Time;durP1;ratioP1;P1;durP2;ratioP2;P2;SDS_P1;SDS_P2;PMS_P1;PMS_P2;Temp;Humidity;BMP_temperature;BMP_pressure;BME280_temperature;BME280_humidity;BME280_pressure;Samples;Min_cycle;Max_cycle;Signal;HPM_P1;HPM_P2
2020/12/22 00:00:07;;;;;;;34.65;22.40;;;3.00;93.80;;;;;;5058753;28;20466;-72
2020/12/22 00:02:46;;;;;;;36.28;21.60;;;3.00;94.00;;;;;;5056175;28;20441;-72
2020/12/22 00:05:14;;;;;;;35.33;22.00;;;3.00;93.80;;;;;;5053723;28;20399;-71
2020/12/22 00:07:41;;;;;;;33.80;21.70;;;3.00;93.80;;;;;;5067735;28;20851;-71
2020/12/22 00:10:09;;;;;;;34.05;22.35;;;3.00;93.80;;;;;;5071605;28;20446;-72
2020/12/22 00:12:38;;;;;;;32.50;20.58;;;3.00;93.90;;;;;;5064223;28;20459;-71
2020/12/22 00:15:07;;;;;;;31.35;20.33;;;3.00;93.80;;;;;;5071607;28;20534;-71
2020/12/22 00:17:33;;;;;;;32.53;21.03;;;3.00;93.80;;;;;;5051525;28;20422;-72
2020/12/22 00:20:00;;;;;;;32.28;20.80;;;3.10;93.80;;;;;;5070534;28;20443;-71
2020/12/22 00:22:28;;;;;;;34.10;21.50;;;3.10;93.90;;;;;;5053988;28;20461;-72
2020/12/22 00:24:54;;;;;;;33.65;21.02;;;3.10;93.70;;;;;;5067573;28;21214;-71
2020/12/22 00:27:20;;;;;;;32.47;20.63;;;3.10;93.80;;;;;;5053960;28;20473;-71
2020/12/22 00:29:47;;;;;;;33.05;21.40;;;3.10;93.90;;;;;;5050298;28;20493;-71
2020/12/22 00:32:15;;;;;;;33.78;21.25;;;3.00;93.80;;;;;;5071080;28;20420;-72
2020/12/22 00:34:42;;;;;;;34.35;20.40;;;3.00;93.80;;;;;;5067410;28;20407;-71
2020/12/22 00:37:08;;;;;;;33.30;21.23;;;3.00;93.80;;;;;;5053539;28;20399;-71
2020/12/22 00:39:37;;;;;;;32.63;20.85;;;3.00;93.90;;;;;;5049733;28;20843;-71
2020/12/22 00:42:03;;;;;;;31.17;20.70;;;3.00;94.00;;;;;;5053508;28;21238;-72
2020/12/22 00:44:30;;;;;;;33.35;21.23;;;3.00;94.00;;;;;;5049468;28;20424;-72
2020/12/22 00:46:56;;;;;;;30.45;20.30;;;3.10;94.00;;;;;;5053214;28;20494;-72
2020/12/22 00:49:23;;;;;;;33.42;21.17;;;3.10;93.80;;;;;;5050746;28;20495;-72
2020/12/22 00:51:49;;;;;;;33.80;22.33;;;3.10;93.80;;;;;;5069841;28;20493;-71
2020/12/22 00:54:16;;;;;;;31.58;20.73;;;3.10;93.70;;;;;;5053149;28;20404;-72
2020/12/22 00:56:46;;;;;;;32.03;21.20;;;3.10;93.70;;;;;;5067162;28;20493;-72
2020/12/22 00:59:12;;;;;;;36.47;21.83;;;3.00;93.80;;;;;;5047824;28;20467;-71
2020/12/22 01:01:39;;;;;;;30.52;20.33;;;3.10;93.80;;;;;;5043419;28;20495;-71
2020/12/22 01:04:05;;;;;;;32.47;22.15;;;3.00;93.80;;;;;;5070795;28;20439;-72
2020/12/22 01:06:36;;;;;;;34.10;21.95;;;3.10;93.90;;;;;;5049203;28;20435;-72
2020/12/22 01:09:04;;;;;;;34.35;22.10;;;3.00;93.90;;;;;;5053270;28;20459;-72
2020/12/22 01:11:39;;;;;;;36.55;22.25;;;3.00;93.80;;;;;;5049305;28;20878;-72
2020/12/22 01:14:06;;;;;;;35.60;22.50;;;3.00;93.80;;;;;;5070670;28;20432;-72
2020/12/22 01:16:33;;;;;;;38.78;23.35;;;3.00;93.90;;;;;;5066754;28;20951;-71
2020/12/22 01:19:00;;;;;;;37.28;23.23;;;3.00;93.90;;;;;;5070635;28;20399;-71
2020/12/22 01:21:29;;;;;;;38.40;23.17;;;3.00;94.00;;;;;;5067300;28;20489;-71
2020/12/22 01:23:56;;;;;;;36.40;22.50;;;3.00;94.00;;;;;;5070383;28;20423;-72
2020/12/22 01:26:24;;;;;;;39.03;24.30;;;3.00;94.00;;;;;;5070551;28;20399;-71
2020/12/22 01:28:50;;;;;;;36.30;23.10;;;3.00;94.10;;;;;;5068500;28;20407;-71
2020/12/22 01:31:27;;;;;;;40.80;24.00;;;3.00;94.10;;;;;;5070336;28;20436;-72
2020/12/22 01:33:57;;;;;;;37.67;23.88;;;3.10;94.20;;;;;;5049213;28;20848;-72
2020/12/22 01:36:27;;;;;;;37.78;24.25;;;3.20;93.60;;;;;;5070493;28;20399;-71
2020/12/22 01:38:54;;;;;;;38.55;24.30;;;3.10;93.70;;;;;;5066675;28;20497;-72
2020/12/22 01:41:20;;;;;;;41.38;24.40;;;3.00;94.00;;;;;;5070565;28;20442;-72
2020/12/22 01:44:09;;;;;;;37.63;23.38;;;3.00;94.20;;;;;;5049292;28;20400;-71
2020/12/22 01:46:42;;;;;;;41.30;25.20;;;3.00;94.20;;;;;;5052662;28;20938;-72
2020/12/22 01:49:29;;;;;;;43.33;26.02;;;3.00;94.40;;;;;;5066618;28;20470;-71
2020/12/22 01:51:57;;;;;;;42.58;25.75;;;3.00;94.60;;;;;;5070304;28;20508;-72
2020/12/22 01:55:01;;;;;;;43.53;25.48;;;3.00;94.40;;;;;;5049008;28;20403;-71
2020/12/22 01:57:30;;;;;;;41.38;26.05;;;3.00;94.50;;;;;;5071229;28;20473;-72
2020/12/22 01:59:56;;;;;;;43.33;25.70;;;3.00;94.50;;;;;;5041361;28;20409;-71
2020/12/22 02:02:25;;;;;;;41.70;25.52;;;3.00;94.50;;;;;;5036342;28;20849;-72
2020/12/22 02:04:52;;;;;;;43.22;25.95;;;3.00;94.50;;;;;;5061431;28;20443;-71
2020/12/22 02:07:20;;;;;;;44.97;26.38;;;3.00;94.60;;;;;;5073848;28;20528;-72
2020/12/22 02:09:49;;;;;;;45.80;27.63;;;3.00;94.60;;;;;;5048959;28;20441;-71
2020/12/22 02:12:19;;;;;;;45.95;27.58;;;3.00;94.80;;;;;;5059513;28;20438;-72
2020/12/22 02:14:45;;;;;;;43.45;27.10;;;3.00;94.90;;;;;;5070037;28;20473;-71
2020/12/22 02:17:13;;;;;;;45.17;26.85;;;3.10;94.80;;;;;;5056330;28;20395;-72
2020/12/22 02:19:39;;;;;;;46.45;27.58;;;3.10;94.70;;;;;;5069850;28;20835;-71
2020/12/22 02:22:06;;;;;;;49.63;29.98;;;3.10;94.90;;;;;;5056177;28;20509;-72
2020/12/22 02:24:33;;;;;;;45.88;27.38;;;3.10;94.80;;;;;;5073738;28;20399;-72
2020/12/22 02:27:06;;;;;;;46.85;28.88;;;3.10;94.80;;;;;;5051471;28;20807;-72
2020/12/22 02:29:32;;;;;;;48.22;28.80;;;3.10;95.00;;;;;;5036145;28;20494;-72
2020/12/22 02:31:59;;;;;;;48.78;29.42;;;3.10;95.00;;;;;;5066143;28;20484;-71
2020/12/22 02:34:26;;;;;;;47.20;29.83;;;3.10;95.20;;;;;;5055950;28;20411;-72
2020/12/22 02:36:53;;;;;;;45.10;28.55;;;3.00;95.20;;;;;;5069618;28;20844;-72
2020/12/22 02:39:19;;;;;;;48.95;29.80;;;3.00;95.00;;;;;;5073039;28;20460;-71
2020/12/22 02:41:46;;;;;;;48.72;29.75;;;3.00;95.10;;;;;;5069521;28;20816;-72
2020/12/22 02:44:12;;;;;;;52.08;31.95;;;3.00;95.00;;;;;;5055784;28;20407;-71
2020/12/22 02:46:38;;;;;;;49.15;30.00;;;3.10;95.30;;;;;;5051890;28;20876;-71
2020/12/22 02:49:05;;;;;;;51.38;31.02;;;3.00;95.20;;;;;;5073213;28;20415;-72
2020/12/22 02:51:34;;;;;;;51.20;30.75;;;3.00;95.20;;;;;;5069235;28;20416;-72
2020/12/22 02:54:01;;;;;;;51.20;32.67;;;3.00;95.10;;;;;;5073074;28;20408;-71
2020/12/22 02:56:27;;;;;;;51.38;31.80;;;3.00;95.30;;;;;;5072970;28;20898;-71
2020/12/22 02:58:53;;;;;;;50.83;31.58;;;3.00;95.40;;;;;;5051329;28;20498;-71
2020/12/22 03:01:20;;;;;;;51.42;31.85;;;3.00;95.20;;;;;;5072611;28;20439;-72
2020/12/22 03:03:46;;;;;;;50.63;32.47;;;3.00;95.30;;;;;;5051587;28;20412;-72
2020/12/22 03:06:15;;;;;;;51.30;32.90;;;3.00;95.30;;;;;;5072822;28;20406;-71
2020/12/22 03:08:43;;;;;;;52.80;32.80;;;3.00;95.40;;;;;;5050849;28;20484;-71
2020/12/22 03:11:09;;;;;;;52.08;31.88;;;3.00;95.40;;;;;;5054991;28;20470;-72
2020/12/22 03:13:36;;;;;;;50.53;32.75;;;3.00;95.30;;;;;;5050390;28;20424;-71
2020/12/22 03:16:03;;;;;;;49.75;31.92;;;3.00;95.10;;;;;;5054879;28;20485;-71
2020/12/22 03:18:31;;;;;;;54.00;33.20;;;3.00;95.20;;;;;;5068952;28;20418;-71
2020/12/22 03:20:58;;;;;;;51.63;32.57;;;3.00;95.30;;;;;;5055179;28;20407;-71
2020/12/22 03:23:24;;;;;;;50.75;32.78;;;3.00;95.30;;;;;;5068845;28;20423;-71
2020/12/22 03:25:50;;;;;;;51.50;32.40;;;3.00;95.40;;;;;;5071949;28;20408;-71
2020/12/22 03:28:17;;;;;;;49.35;31.25;;;3.00;95.40;;;;;;5072061;28;20840;-72
2020/12/22 03:30:43;;;;;;;50.70;32.42;;;3.10;95.50;;;;;;5069586;28;20570;-71
2020/12/22 03:33:10;;;;;;;49.15;31.75;;;3.10;95.40;;;;;;5072036;28;20434;-71
2020/12/22 03:35:36;;;;;;;53.05;33.90;;;3.10;95.30;;;;;;5068691;28;20699;-72
2020/12/22 03:38:02;;;;;;;53.25;33.40;;;3.00;95.40;;;;;;5072275;28;20396;-71
2020/12/22 03:40:29;;;;;;;58.22;34.85;;;3.10;95.50;;;;;;5051205;28;20764;-72
2020/12/22 03:42:58;;;;;;;51.97;33.58;;;3.00;95.60;;;;;;5054626;28;20407;-71
2020/12/22 03:45:24;;;;;;;52.27;33.37;;;3.00;95.50;;;;;;5051280;28;20412;-71
2020/12/22 03:47:51;;;;;;;53.75;33.50;;;3.00;95.60;;;;;;5072204;28;20419;-71
2020/12/22 03:50:21;;;;;;;57.10;35.05;;;3.00;95.60;;;;;;5068361;28;20412;-71
2020/12/22 03:52:48;;;;;;;57.23;34.57;;;3.00;95.70;;;;;;5071594;28;20463;-71
2020/12/22 03:55:14;;;;;;;56.22;33.90;;;3.00;95.70;;;;;;5050621;28;20404;-71
2020/12/22 03:57:42;;;;;;;56.17;35.45;;;3.00;95.60;;;;;;5054255;28;20502;-71
2020/12/22 04:00:14;;;;;;;56.92;34.72;;;3.00;95.80;;;;;;5067983;28;20910;-71
2020/12/22 04:02:42;;;;;;;58.08;35.55;;;3.00;95.60;;;;;;5054160;28;20408;-71
2020/12/22 04:05:08;;;;;;;55.80;34.45;;;3.00;95.70;;;;;;5071779;28;20404;-71
2020/12/22 04:07:35;;;;;;;57.55;35.00;;;3.00;95.80;;;;;;5050459;28;20411;-71
2020/12/22 04:10:02;;;;;;;55.92;34.83;;;3.00;95.90;;;;;;5071072;28;20447;-71
2020/12/22 04:12:30;;;;;;;55.55;33.95;;;3.00;95.80;;;;;;5067446;28;20565;-72
2020/12/22 04:14:57;;;;;;;54.00;33.30;;;3.00;95.80;;;;;;5054025;28;20399;-71
2020/12/22 04:17:23;;;;;;;57.88;34.97;;;3.00;95.60;;;;;;5067800;28;20892;-71
2020/12/22 04:19:50;;;;;;;54.05;34.00;;;3.00;95.80;;;;;;5052838;28;20848;-71
2020/12/22 04:22:16;;;;;;;55.72;35.15;;;2.90;95.80;;;;;;5067271;28;20415;-71
2020/12/22 04:24:43;;;;;;;54.97;34.88;;;3.00;96.00;;;;;;5053812;28;20435;-71
2020/12/22 04:27:11;;;;;;;55.80;34.78;;;3.00;96.00;;;;;;5067696;28;20415;-71
2020/12/22 04:29:38;;;;;;;50.63;31.95;;;3.00;96.00;;;;;;5070934;28;20392;-71
2020/12/22 04:32:05;;;;;;;49.65;32.03;;;3.00;95.80;;;;;;5066189;28;20439;-72
2020/12/22 04:34:31;;;;;;;59.10;33.67;;;3.10;95.70;;;;;;5033897;28;20491;-71
2020/12/22 04:36:58;;;;;;;50.95;32.72;;;3.10;95.80;;;;;;5051310;28;20475;-71
2020/12/22 04:39:24;;;;;;;52.63;33.50;;;3.10;95.90;;;;;;5049179;28;20435;-71
2020/12/22 04:41:54;;;;;;;52.70;32.83;;;3.10;95.80;;;;;;5053821;28;20838;-71
2020/12/22 04:44:20;;;;;;;52.63;33.15;;;3.10;95.90;;;;;;5049689;28;20475;-71
2020/12/22 04:46:50;;;;;;;51.83;33.90;;;3.10;96.00;;;;;;5071347;28;21019;-72
2020/12/22 04:49:23;;;;;;;51.35;32.63;;;3.10;96.00;;;;;;5049783;28;20424;-72
2020/12/22 04:51:52;;;;;;;48.88;31.23;;;3.10;95.90;;;;;;5070519;28;20446;-71
2020/12/22 04:54:37;;;;;;;51.20;32.77;;;3.10;95.70;;;;;;5067160;28;20399;-71
2020/12/22 04:57:05;;;;;;;49.23;31.90;;;3.10;96.00;;;;;;5053357;28;20408;-72
2020/12/22 04:59:32;;;;;;;51.28;32.25;;;3.10;95.90;;;;;;5066994;28;20408;-72
2020/12/22 05:01:59;;;;;;;46.40;30.85;;;3.10;95.80;;;;;;5070782;28;20799;-71
2020/12/22 05:04:38;;;;;;;49.22;30.27;;;3.20;95.80;;;;;;5049683;28;20423;-72
2020/12/22 05:07:06;;;;;;;46.20;29.70;;;3.10;95.70;;;;;;5052175;28;20879;-71
2020/12/22 05:09:33;;;;;;;43.20;29.52;;;3.10;95.80;;;;;;5067216;28;20433;-71
2020/12/22 05:12:00;;;;;;;44.67;30.48;;;3.10;95.70;;;;;;5070266;28;20451;-71
2020/12/22 05:14:27;;;;;;;47.20;30.50;;;3.10;95.80;;;;;;5067142;28;20427;-71
2020/12/22 05:16:57;;;;;;;49.37;31.30;;;3.10;95.80;;;;;;5070888;28;20396;-71
2020/12/22 05:19:33;;;;;;;45.40;30.92;;;3.10;96.00;;;;;;5070545;28;20424;-71
2020/12/22 05:22:06;;;;;;;48.25;29.77;;;3.10;95.80;;;;;;5051944;28;20816;-71
2020/12/22 05:24:35;;;;;;;46.60;31.55;;;3.10;95.90;;;;;;5053028;28;20420;-72
2020/12/22 05:27:03;;;;;;;44.03;30.20;;;3.20;95.90;;;;;;5049248;28;20484;-72
2020/12/22 05:29:29;;;;;;;47.60;30.35;;;3.20;95.90;;;;;;5070530;28;20415;-71
2020/12/22 05:31:58;;;;;;;50.63;31.02;;;3.20;95.80;;;;;;5051142;28;20431;-72
2020/12/22 05:34:27;;;;;;;49.00;31.52;;;3.20;95.80;;;;;;5073451;28;20477;-71
2020/12/22 05:36:58;;;;;;;45.90;30.67;;;3.10;95.70;;;;;;5071202;28;20415;-71
2020/12/22 05:39:26;;;;;;;49.00;31.63;;;3.10;95.70;;;;;;5056985;28;20518;-71
2020/12/22 05:41:52;;;;;;;47.47;31.20;;;3.10;95.90;;;;;;5053839;28;20442;-72
2020/12/22 05:44:24;;;;;;;46.20;29.98;;;3.10;96.00;;;;;;5074405;28;20403;-72
2020/12/22 05:46:51;;;;;;;48.13;31.50;;;3.10;96.10;;;;;;5070699;28;20431;-71
2020/12/22 05:49:18;;;;;;;46.25;31.05;;;3.20;96.10;;;;;;5074113;28;20431;-72
2020/12/22 05:51:45;;;;;;;50.10;31.00;;;3.20;96.20;;;;;;5053281;28;20461;-71
2020/12/22 05:54:17;;;;;;;49.40;32.75;;;3.20;96.10;;;;;;5074124;28;20472;-72
2020/12/22 05:56:44;;;;;;;50.80;32.00;;;3.20;96.10;;;;;;5053247;28;20399;-71
2020/12/22 05:59:20;;;;;;;46.70;30.73;;;3.20;96.20;;;;;;5041999;28;20929;-71
2020/12/22 06:01:47;;;;;;;47.67;31.60;;;3.20;96.20;;;;;;5055688;28;20421;-71
2020/12/22 06:04:17;;;;;;;51.25;33.28;;;3.20;96.30;;;;;;5053011;28;20419;-71
2020/12/22 06:06:47;;;;;;;52.08;32.88;;;3.20;96.20;;;;;;5073700;28;20871;-72
2020/12/22 06:09:17;;;;;;;51.75;33.00;;;3.20;96.20;;;;;;5052731;28;20412;-71
2020/12/22 06:11:55;;;;;;;56.13;33.87;;;3.20;96.30;;;;;;5072804;28;20469;-71
2020/12/22 06:14:24;;;;;;;51.13;33.05;;;3.20;96.30;;;;;;5070100;28;20451;-71
2020/12/22 06:16:51;;;;;;;50.95;33.60;;;3.20;96.30;;;;;;5073984;28;20530;-71
2020/12/22 06:19:18;;;;;;;49.17;32.22;;;3.20;96.30;;;;;;5052485;28;20425;-72
2020/12/22 06:21:58;;;;;;;51.83;32.85;;;3.20;96.30;;;;;;5073847;28;20411;-71
2020/12/22 06:24:25;;;;;;;47.30;31.60;;;3.20;96.30;;;;;;5051642;28;20434;-71
2020/12/22 06:27:07;;;;;;;47.60;31.23;;;3.20;96.20;;;;;;5073763;28;20439;-72
2020/12/22 06:29:35;;;;;;;46.03;30.95;;;3.20;96.20;;;;;;5068924;28;20484;-72
2020/12/22 06:32:16;;;;;;;49.30;31.20;;;3.20;96.20;;;;;;5073161;28;20469;-72
2020/12/22 06:34:46;;;;;;;51.15;31.17;;;3.30;96.30;;;;;;5052172;28;20408;-71
2020/12/22 06:37:13;;;;;;;48.33;30.80;;;3.30;96.30;;;;;;5072514;28;20441;-71
2020/12/22 06:39:41;;;;;;;48.03;31.02;;;3.30;96.30;;;;;;5070050;28;20534;-71
2020/12/22 06:42:10;;;;;;;45.90;31.17;;;3.30;96.30;;;;;;5072231;28;20459;-72
2020/12/22 06:44:36;;;;;;;46.13;30.13;;;3.30;96.30;;;;;;5051485;28;20470;-72
2020/12/22 06:47:04;;;;;;;47.40;30.15;;;3.30;96.20;;;;;;5073336;28;20391;-72
2020/12/22 06:49:53;;;;;;;46.15;30.42;;;3.30;96.20;;;;;;5072218;28;20882;-72
2020/12/22 06:52:29;;;;;;;48.57;29.90;;;3.30;96.10;;;;;;5055267;28;20484;-71
2020/12/22 06:54:55;;;;;;;46.30;29.15;;;3.30;96.00;;;;;;5070083;28;20783;-71
2020/12/22 06:57:40;;;;;;;48.47;30.45;;;3.30;96.10;;;;;;5070211;28;20473;-72
2020/12/22 07:00:08;;;;;;;47.47;30.17;;;3.30;96.30;;;;;;5072880;28;20432;-71
2020/12/22 07:02:45;;;;;;;46.45;30.45;;;3.30;96.20;;;;;;5052363;28;20440;-71
2020/12/22 07:05:38;;;;;;;44.45;29.02;;;3.30;96.30;;;;;;5052749;28;20405;-72
2020/12/22 07:08:06;;;;;;;44.75;29.95;;;3.40;96.30;;;;;;5035520;28;20433;-71
2020/12/22 07:10:37;;;;;;;48.90;30.83;;;3.40;96.20;;;;;;5052584;28;20459;-71
2020/12/22 07:13:08;;;;;;;47.57;31.80;;;3.40;96.20;;;;;;5067054;28;20440;-72
2020/12/22 07:15:42;;;;;;;50.17;29.47;;;3.40;96.30;;;;;;5054492;28;20470;-71
2020/12/22 07:18:12;;;;;;;45.78;28.48;;;3.40;96.40;;;;;;5068791;28;20416;-72
2020/12/22 07:20:43;;;;;;;42.20;28.13;;;3.60;96.30;;;;;;5072135;28;20844;-71
2020/12/22 07:23:11;;;;;;;46.40;30.55;;;3.60;96.10;;;;;;5068263;28;20465;-71
2020/12/22 07:25:41;;;;;;;47.28;31.13;;;3.60;96.30;;;;;;5053669;28;20435;-71
2020/12/22 07:28:13;;;;;;;50.40;33.33;;;3.60;96.20;;;;;;5068477;28;20403;-71
2020/12/22 07:30:39;;;;;;;49.63;32.67;;;3.60;96.00;;;;;;5054379;28;20450;-71
2020/12/22 07:33:06;;;;;;;50.55;33.40;;;3.60;95.90;;;;;;5063174;28;20983;-71
2020/12/22 07:35:35;;;;;;;53.17;34.97;;;3.60;95.80;;;;;;5072231;28;20473;-71
2020/12/22 07:38:09;;;;;;;59.60;37.22;;;3.60;95.80;;;;;;5050035;28;20480;-71
2020/12/22 07:40:42;;;;;;;58.35;36.85;;;3.60;95.80;;;;;;5055399;28;20414;-71
2020/12/22 07:43:13;;;;;;;55.17;35.53;;;3.60;95.80;;;;;;5072797;28;20862;-71
2020/12/22 07:45:52;;;;;;;54.90;34.70;;;3.60;95.90;;;;;;5073961;28;20397;-72
2020/12/22 07:48:19;;;;;;;55.75;35.47;;;3.60;95.80;;;;;;5084000;28;20407;-71
2020/12/22 07:50:53;;;;;;;53.38;34.58;;;3.60;96.00;;;;;;5054168;28;20407;-71
2020/12/22 07:53:19;;;;;;;52.38;34.13;;;3.60;96.00;;;;;;5068608;28;20432;-71
2020/12/22 07:55:46;;;;;;;55.72;34.10;;;3.70;96.00;;;;;;5071791;28;20445;-71
2020/12/22 07:58:13;;;;;;;51.67;34.25;;;3.70;95.80;;;;;;5054129;28;20400;-71
2020/12/22 08:00:40;;;;;;;54.10;34.22;;;3.70;96.00;;;;;;5067647;28;20477;-71
2020/12/22 08:03:16;;;;;;;50.03;32.45;;;3.70;96.00;;;;;;5071535;28;20420;-71
2020/12/22 08:06:03;;;;;;;49.13;33.15;;;3.70;96.00;;;;;;5049165;28;20917;-71
2020/12/22 08:08:30;;;;;;;52.17;33.58;;;3.80;95.90;;;;;;5070958;28;20408;-72
2020/12/22 08:10:59;;;;;;;50.78;33.40;;;3.80;96.00;;;;;;5050042;28;20855;-71
2020/12/22 08:13:29;;;;;;;49.78;32.85;;;3.80;96.00;;;;;;5052576;28;20435;-72
2020/12/22 08:15:58;;;;;;;47.05;31.92;;;3.80;95.90;;;;;;5050185;28;20407;-76
2020/12/22 08:18:25;;;;;;;45.60;31.35;;;3.80;95.70;;;;;;5066679;28;20408;-74
2020/12/22 08:20:56;;;;;;;46.75;31.92;;;3.90;95.60;;;;;;5050048;28;20457;-73
2020/12/22 08:23:26;;;;;;;46.47;32.42;;;3.90;95.60;;;;;;5071021;28;20469;-74
2020/12/22 08:25:52;;;;;;;47.25;32.17;;;3.90;95.60;;;;;;5049986;28;20407;-74
2020/12/22 08:28:25;;;;;;;46.55;31.35;;;4.00;95.70;;;;;;5052298;28;21172;-75
2020/12/22 08:30:54;;;;;;;48.15;32.53;;;4.00;95.60;;;;;;5066901;28;20419;-75
2020/12/22 08:33:22;;;;;;;47.60;32.30;;;4.10;95.40;;;;;;5070813;28;20431;-75
2020/12/22 08:35:49;;;;;;;48.30;31.92;;;4.10;95.30;;;;;;5066777;28;20435;-74
2020/12/22 08:38:25;;;;;;;48.08;32.20;;;4.10;95.40;;;;;;5053640;28;20828;-72
2020/12/22 08:40:56;;;;;;;48.13;33.03;;;4.10;95.30;;;;;;5066605;28;20485;-72
2020/12/22 08:43:24;;;;;;;47.92;32.38;;;4.20;95.40;;;;;;5070649;28;20473;-72
2020/12/22 08:45:52;;;;;;;49.65;33.92;;;4.20;95.30;;;;;;5053168;28;20458;-72
2020/12/22 08:48:21;;;;;;;54.67;35.15;;;4.30;95.30;;;;;;5048811;28;20488;-74
2020/12/22 08:50:54;;;;;;;49.42;33.25;;;4.30;95.10;;;;;;5050268;28;20508;-72
2020/12/22 08:53:48;;;;;;;49.90;33.00;;;4.40;94.90;;;;;;5065802;28;20431;-72
2020/12/22 08:56:15;;;;;;;47.88;32.67;;;4.50;94.80;;;;;;5070677;28;20400;-72
2020/12/22 08:59:11;;;;;;;46.25;31.17;;;4.50;94.50;;;;;;5048312;28;20469;-75
2020/12/22 09:01:49;;;;;;;48.95;31.05;;;4.60;94.50;;;;;;5057679;28;20465;-75
2020/12/22 09:04:16;;;;;;;46.97;32.03;;;4.60;94.30;;;;;;5049499;28;20412;-73
2020/12/22 09:06:47;;;;;;;47.05;32.58;;;4.60;94.50;;;;;;5069680;28;20449;-74
2020/12/22 09:09:16;;;;;;;47.97;32.63;;;4.50;94.70;;;;;;5066523;28;20403;-73
2020/12/22 09:11:46;;;;;;;46.92;31.70;;;4.50;95.00;;;;;;5070175;28;20503;-73
2020/12/22 09:14:13;;;;;;;46.92;32.25;;;4.60;94.90;;;;;;5035447;28;20494;-74
2020/12/22 09:16:56;;;;;;;47.95;32.10;;;4.60;94.90;;;;;;5049445;28;20494;-73
2020/12/22 09:19:49;;;;;;;44.20;30.75;;;4.70;94.90;;;;;;5041799;28;20413;-74
2020/12/22 09:22:20;;;;;;;44.40;30.55;;;4.80;94.80;;;;;;5052715;28;20454;-74
2020/12/22 09:24:56;;;;;;;41.53;28.17;;;4.90;94.90;;;;;;5066602;28;20427;-73
2020/12/22 09:27:29;;;;;;;44.50;28.60;;;4.90;94.70;;;;;;5052718;28;20407;-73
2020/12/22 09:29:59;;;;;;;40.08;27.63;;;5.00;94.80;;;;;;5066315;28;20962;-74
2020/12/22 09:32:26;;;;;;;37.60;27.25;;;5.00;94.50;;;;;;5051658;28;20914;-74
2020/12/22 09:34:53;;;;;;;40.05;27.80;;;4.90;94.40;;;;;;5047964;28;20411;-74
2020/12/22 09:37:28;;;;;;;40.58;27.85;;;4.90;94.30;;;;;;5069766;28;20863;-71
2020/12/22 09:39:56;;;;;;;41.55;28.23;;;4.80;94.20;;;;;;5065541;28;20879;-73
2020/12/22 09:42:27;;;;;;;40.10;27.48;;;4.80;94.40;;;;;;5052273;28;20453;-74
2020/12/22 09:44:55;;;;;;;39.30;27.57;;;4.80;94.50;;;;;;5048828;28;20481;-74
2020/12/22 09:47:24;;;;;;;39.20;27.70;;;4.80;94.40;;;;;;5052285;28;20407;-74
2020/12/22 09:49:53;;;;;;;42.10;27.70;;;4.70;94.10;;;;;;5049041;28;20833;-75
2020/12/22 09:52:21;;;;;;;45.15;28.20;;;4.70;94.60;;;;;;5051699;28;20464;-74
2020/12/22 09:54:51;;;;;;;42.58;28.13;;;4.70;94.50;;;;;;5052376;28;20736;-75
2020/12/22 09:57:20;;;;;;;43.25;28.88;;;4.80;94.30;;;;;;5068198;28;20545;-75
2020/12/22 09:59:51;;;;;;;39.65;27.45;;;4.70;94.50;;;;;;5058764;28;20488;-73
2020/12/22 10:02:20;;;;;;;41.22;28.70;;;4.70;94.70;;;;;;5048335;28;20855;-72
2020/12/22 10:04:47;;;;;;;42.72;29.52;;;4.70;94.60;;;;;;5069431;28;20404;-72
2020/12/22 10:07:14;;;;;;;44.35;30.52;;;4.80;94.80;;;;;;5065762;28;21023;-76
2020/12/22 10:09:42;;;;;;;41.30;28.90;;;4.80;94.90;;;;;;5050935;28;20895;-72
2020/12/22 10:12:09;;;;;;;44.22;30.13;;;4.80;94.90;;;;;;5065355;28;20836;-73
2020/12/22 10:14:35;;;;;;;46.17;30.67;;;4.90;95.00;;;;;;5069690;28;20812;-71
2020/12/22 10:17:02;;;;;;;49.20;32.17;;;4.90;95.10;;;;;;5065810;28;20485;-73
2020/12/22 10:19:29;;;;;;;47.67;30.48;;;5.00;95.30;;;;;;5054776;28;20871;-73
2020/12/22 10:21:55;;;;;;;42.75;30.83;;;5.10;94.80;;;;;;5047994;28;20463;-72
2020/12/22 10:24:34;;;;;;;48.17;31.80;;;5.10;94.60;;;;;;5037795;28;20826;-76
2020/12/22 10:27:01;;;;;;;47.60;32.10;;;5.10;94.90;;;;;;5053468;28;20457;-72
2020/12/22 10:29:27;;;;;;;49.00;33.40;;;5.00;95.00;;;;;;5073308;28;20473;-72
2020/12/22 10:31:55;;;;;;;50.00;32.40;;;5.30;94.90;;;;;;5071640;28;20407;-77
2020/12/22 10:34:24;;;;;;;47.63;32.65;;;5.30;94.60;;;;;;5054546;28;20427;-71
2020/12/22 10:36:56;;;;;;;47.30;32.53;;;5.30;94.80;;;;;;5056359;28;20400;-73
2020/12/22 10:39:25;;;;;;;50.20;32.53;;;5.30;94.70;;;;;;5051785;28;20424;-72
2020/12/22 10:41:52;;;;;;;49.07;32.27;;;5.30;95.10;;;;;;5073171;28;20434;-73
2020/12/22 10:44:20;;;;;;;50.67;33.33;;;5.30;95.20;;;;;;5069803;28;20472;-74
2020/12/22 10:46:47;;;;;;;45.70;31.17;;;5.40;95.50;;;;;;5068741;28;21139;-71
2020/12/22 10:49:14;;;;;;;48.05;31.38;;;5.50;95.00;;;;;;5040744;28;20409;-72
2020/12/22 10:51:43;;;;;;;51.10;32.67;;;5.50;95.10;;;;;;5035282;28;21234;-73
2020/12/22 10:54:11;;;;;;;46.78;32.17;;;5.40;95.40;;;;;;5058533;28;20516;-74
2020/12/22 10:56:40;;;;;;;52.53;33.50;;;5.40;95.60;;;;;;5072416;28;20472;-71
2020/12/22 10:59:08;;;;;;;59.55;36.47;;;5.40;95.80;;;;;;5049918;28;20411;-75
2020/12/22 11:01:38;;;;;;;63.45;37.80;;;5.50;95.90;;;;;;5055398;28;20420;-73
2020/12/22 11:04:05;;;;;;;64.95;37.92;;;5.50;96.10;;;;;;5050608;28;20874;-71
2020/12/22 11:06:42;;;;;;;61.30;36.33;;;5.50;96.00;;;;;;5055122;28;20403;-75
2020/12/22 11:09:09;;;;;;;58.43;34.93;;;5.60;96.20;;;;;;5068651;28;20432;-75
2020/12/22 11:11:43;;;;;;;51.63;33.70;;;5.60;96.40;;;;;;5055170;28;20415;-74
2020/12/22 11:14:11;;;;;;;56.03;35.93;;;5.70;96.40;;;;;;5055270;28;20423;-72
2020/12/22 11:16:37;;;;;;;57.70;36.08;;;5.70;96.50;;;;;;5049147;28;20908;-72
2020/12/22 11:19:06;;;;;;;59.75;36.47;;;5.80;96.60;;;;;;5072096;28;20858;-72
2020/12/22 11:21:33;;;;;;;56.10;34.60;;;5.80;96.80;;;;;;5067826;28;20403;-72
2020/12/22 11:23:59;;;;;;;51.63;33.95;;;5.90;96.60;;;;;;5072037;28;20469;-73
2020/12/22 11:26:25;;;;;;;58.45;36.70;;;6.00;96.60;;;;;;5051040;28;20485;-72
2020/12/22 11:28:52;;;;;;;60.50;38.05;;;6.00;96.60;;;;;;5071618;28;20451;-72
2020/12/22 11:31:20;;;;;;;55.60;35.28;;;6.10;96.70;;;;;;5067554;28;20435;-72
2020/12/22 11:33:47;;;;;;;58.00;37.00;;;6.10;96.50;;;;;;5071730;28;20431;-72
2020/12/22 11:36:18;;;;;;;52.90;34.72;;;6.20;96.50;;;;;;5044976;28;20425;-72
2020/12/22 11:38:45;;;;;;;55.03;36.40;;;6.20;96.40;;;;;;5034305;28;20406;-72
2020/12/22 11:41:19;;;;;;;55.10;35.08;;;6.20;96.40;;;;;;5051570;28;20430;-73
2020/12/22 11:43:45;;;;;;;51.65;35.40;;;6.30;96.40;;;;;;5054041;28;20480;-72
2020/12/22 11:46:12;;;;;;;53.15;34.88;;;6.30;96.40;;;;;;5068155;28;20899;-73
2020/12/22 11:48:38;;;;;;;51.72;34.80;;;6.40;96.50;;;;;;5054179;28;20420;-72
2020/12/22 11:51:06;;;;;;;54.08;34.90;;;6.40;96.30;;;;;;5054223;28;20469;-72
2020/12/22 11:53:33;;;;;;;53.43;35.00;;;6.40;96.30;;;;;;5067462;28;20420;-72
2020/12/22 11:56:00;;;;;;;57.47;37.78;;;6.40;96.30;;;;;;5071216;28;20477;-73
2020/12/22 11:58:29;;;;;;;57.30;38.08;;;6.40;96.30;;;;;;5067785;28;20419;-72
2020/12/22 12:00:57;;;;;;;65.35;40.28;;;6.50;96.20;;;;;;5034102;28;20412;-72
2020/12/22 12:03:24;;;;;;;74.50;47.15;;;6.50;96.40;;;;;;5042211;28;20411;-73
2020/12/22 12:05:50;;;;;;;66.68;42.85;;;6.80;96.50;;;;;;5070924;28;20411;-72
2020/12/22 12:08:16;;;;;;;58.87;39.77;;;6.70;96.10;;;;;;5025599;28;20483;-73
2020/12/22 12:10:43;;;;;;;54.17;36.17;;;6.80;96.50;;;;;;5050871;28;20447;-72
2020/12/22 12:13:12;;;;;;;58.35;35.88;;;6.80;96.60;;;;;;5030273;28;20937;-73
2020/12/22 12:15:38;;;;;;;65.68;40.70;;;6.70;96.70;;;;;;5033958;28;20405;-72
2020/12/22 12:18:04;;;;;;;60.10;36.40;;;6.80;97.20;;;;;;5047652;28;20907;-72
2020/12/22 12:20:31;;;;;;;58.85;37.08;;;7.00;97.20;;;;;;5061601;28;20473;-71
2020/12/22 12:22:58;;;;;;;57.60;36.83;;;7.10;97.20;;;;;;5053581;28;20477;-72
2020/12/22 12:25:26;;;;;;;63.72;38.65;;;7.10;97.40;;;;;;5032342;28;20405;-72
2020/12/22 12:27:53;;;;;;;52.42;35.05;;;7.10;97.50;;;;;;5025655;28;20455;-72
2020/12/22 12:30:21;;;;;;;55.28;34.90;;;7.10;97.30;;;;;;5052100;28;20421;-72
2020/12/22 12:32:50;;;;;;;56.67;35.97;;;7.20;97.40;;;;;;5035233;28;20889;-72
2020/12/22 12:35:16;;;;;;;57.65;35.85;;;7.20;97.50;;;;;;5054558;28;20873;-72
2020/12/22 12:37:47;;;;;;;57.05;36.05;;;7.20;97.50;;;;;;5034379;28;20416;-72
2020/12/22 12:40:13;;;;;;;51.07;32.93;;;7.30;97.60;;;;;;5029940;28;20437;-72
2020/12/22 12:42:43;;;;;;;58.38;36.55;;;7.30;97.70;;;;;;5032774;28;20436;-72
2020/12/22 12:45:13;;;;;;;53.85;35.70;;;7.40;97.50;;;;;;5047243;28;20495;-72